Al-Jouf, Saudi Arabia

7:49 AM AST on August 21, 2014 (GMT +0300)
Al Jouf | Change Station
CLOSE
Current Station
Airport
Location: Al-Jouf,
Elevation: 2260 ft
Nearby Weather Stations

Elev 2260 ft 29.79 °N, 40.10 °E | Updated 49 minutes ago

Clear
Clear
88 °F
Feels Like 88 °F
N
6
Wind Variable Wind from ENE

Today
High -- | Low -- °F
--% Chance of Precip.
Yesterday
High -- | Low -- °F
Precip. -- in
5:50 AM 6:54 PM
Waning Crescent, 17% visible
Pressure 29.92 in
Visibility -9999.0 miles
Clouds
Dew Point 41 °F
Humidity 19%
Rainfall 0.00 in
Snow Depth Not available.
UV Not available.
Pollen Not available.
Air Quality Not available.
Flu Activity Not available.
METAR OESK 210400Z 06005KT CAVOK 31/05 Q1013 NOSIG

More Conditions Fewer Conditions

Pressure 29.92 in
Visibility -9999.0 miles
Clouds
Dew Point 41 °F
Humidity 19%
Rainfall 0.00 in
Snow Depth Not available.
UV Not available.
Pollen Not available.
Air Quality Not available.
Flu Activity Not available.
METAR OESK 210400Z 06005KT CAVOK 31/05 Q1013 NOSIG

More Conditions Fewer Conditions

10-Day Weather Forecast

Almanac

Astronomy

Aug. 21, 2014 Rise Set
Actual Time 5:50 AM AST 6:54 PM AST
Civil Twilight 5:25 AM AST 7:19 PM AST
Nautical Twilight 4:56 AM AST 7:48 PM AST
Astronomical Twilight 4:26 AM AST 8:18 PM AST
Moon 2:10 AM AST 4:01 PM AST
Length of Visible Light 13h 53m
Length of Day
13h 04m
Tomorrow will be 1m 38s shorter.
Waning Crescent, 17% of the Moon is Illuminated
Today
Waning Crescent
Aug 25
New
Sep 2
First Quarter
Sep 8
Full
Sep 15
Last Quarter

Yesterday's Extremes

Country Highs Country Lows

Community

WunderPhotos

Upload Photos

1,745,856 photos uploaded!

Nearby

Snow Depth

Not available.

Earthquake Activity

City Distance Mag. Time & Date
No recent earthquake activity has been reported nearby.
Minimum magnitude displayed is 2.5.

Coastal Water Temperatures

Place Temperature
No Stations Reporting

Nearby Weather Stations